Time;durP1;ratioP1;P1;durP2;ratioP2;P2;SDS_P1;SDS_P2;PMS_P1;PMS_P2;Temp;Humidity;BMP_temperature;BMP_pressure;BME280_temperature;BME280_humidity;BME280_pressure;Samples;Min_cycle;Max_cycle;Signal;HPM_P1;HPM_P2
2021/03/26 00:01:18;;;;;;;13.55;8.13;;;4.90;99.90;;;;;;4877779;29;20450;-78
2021/03/26 00:03:52;;;;;;;12.43;7.13;;;5.00;99.90;;;;;;4877833;29;20049;-79
2021/03/26 00:06:26;;;;;;;15.00;7.22;;;5.00;99.90;;;;;;4877651;29;20052;-79
2021/03/26 00:08:58;;;;;;;14.15;8.00;;;5.10;99.90;;;;;;4862730;29;20048;-79
2021/03/26 00:11:30;;;;;;;17.05;8.38;;;5.10;99.90;;;;;;4877685;29;20056;-78
2021/03/26 00:14:02;;;;;;;15.93;8.10;;;5.20;99.90;;;;;;4877689;29;20052;-79
2021/03/26 00:16:33;;;;;;;15.80;7.82;;;5.40;99.90;;;;;;4865037;29;20052;-79
2021/03/26 00:19:05;;;;;;;17.55;9.20;;;5.50;99.90;;;;;;4889085;29;20051;-79
2021/03/26 00:21:37;;;;;;;17.90;8.85;;;5.60;99.90;;;;;;4874633;29;20049;-79
2021/03/26 00:24:09;;;;;;;14.20;7.88;;;5.60;99.90;;;;;;4852596;29;20412;-79
2021/03/26 00:26:41;;;;;;;14.20;7.65;;;5.70;99.90;;;;;;4888746;29;20141;-79
2021/03/26 00:29:12;;;;;;;15.65;9.02;;;5.70;99.90;;;;;;4875069;29;20052;-79
2021/03/26 00:31:41;;;;;;;16.73;9.85;;;5.70;99.90;;;;;;4881569;29;20044;-79
2021/03/26 00:34:12;;;;;;;16.70;8.52;;;5.70;99.90;;;;;;4877490;29;20048;-79
2021/03/26 00:36:43;;;;;;;12.15;7.78;;;5.70;99.90;;;;;;4869532;29;20051;-79
2021/03/26 00:39:10;;;;;;;14.70;7.95;;;5.60;99.90;;;;;;4874291;29;20143;-79
2021/03/26 00:41:41;;;;;;;16.60;8.60;;;5.60;99.90;;;;;;4862163;29;20104;-79
2021/03/26 00:44:08;;;;;;;13.85;7.80;;;5.60;99.90;;;;;;4878487;29;20080;-79
2021/03/26 00:46:41;;;;;;;13.70;8.30;;;5.70;99.90;;;;;;4879301;29;20445;-79
2021/03/26 00:49:13;;;;;;;17.10;8.85;;;5.70;99.90;;;;;;4878634;29;20052;-79
2021/03/26 00:51:44;;;;;;;13.05;7.20;;;5.60;99.90;;;;;;4866665;29;20076;-79
2021/03/26 00:54:17;;;;;;;14.18;7.78;;;5.60;99.90;;;;;;4867383;29;20416;-79
2021/03/26 00:56:49;;;;;;;12.70;7.43;;;5.60;99.90;;;;;;4867487;29;20052;-79
2021/03/26 00:59:20;;;;;;;12.07;7.28;;;5.50;99.90;;;;;;4867330;29;20043;-79
2021/03/26 01:01:52;;;;;;;16.33;8.60;;;5.40;99.90;;;;;;4867592;29;20101;-80
2021/03/26 01:04:24;;;;;;;15.32;9.15;;;5.40;99.90;;;;;;4881958;29;20600;-79
2021/03/26 01:06:55;;;;;;;14.32;8.60;;;5.30;99.90;;;;;;4882101;29;20068;-79
2021/03/26 01:09:27;;;;;;;15.32;8.82;;;5.20;99.90;;;;;;4867135;29;20044;-79
2021/03/26 01:11:58;;;;;;;20.88;10.10;;;5.10;99.90;;;;;;4867263;29;20052;-79
2021/03/26 01:14:30;;;;;;;13.10;8.52;;;5.10;99.90;;;;;;4867188;29;20422;-79
2021/03/26 01:16:59;;;;;;;17.50;9.93;;;5.00;99.90;;;;;;4881986;29;20496;-79
2021/03/26 01:19:37;;;;;;;12.68;7.50;;;4.90;99.90;;;;;;4881621;29;20048;-79
2021/03/26 01:22:12;;;;;;;13.95;8.13;;;4.80;99.90;;;;;;4882020;29;20055;-79
2021/03/26 01:24:39;;;;;;;10.80;6.82;;;4.80;99.90;;;;;;4881935;29;20055;-79
2021/03/26 01:27:13;;;;;;;11.95;8.43;;;4.80;99.90;;;;;;4867361;29;20328;-79
2021/03/26 01:29:46;;;;;;;13.83;8.90;;;4.80;99.90;;;;;;4866713;29;20044;-79
2021/03/26 01:32:18;;;;;;;14.55;9.73;;;4.70;99.90;;;;;;4881385;29;20292;-79
2021/03/26 01:34:49;;;;;;;16.02;9.20;;;4.70;99.90;;;;;;4866694;29;20424;-79
2021/03/26 01:37:20;;;;;;;13.48;7.20;;;4.70;99.90;;;;;;4898622;29;20124;-79
2021/03/26 01:39:52;;;;;;;14.82;7.60;;;4.70;99.90;;;;;;4866263;29;20048;-79
2021/03/26 01:42:27;;;;;;;13.02;7.25;;;4.70;99.90;;;;;;4866366;29;20051;-79
2021/03/26 01:45:00;;;;;;;13.98;8.32;;;4.60;99.90;;;;;;4881300;29;20131;-79
2021/03/26 01:47:50;;;;;;;15.15;6.88;;;4.60;99.90;;;;;;4881128;29;20500;-79
2021/03/26 01:50:27;;;;;;;10.82;7.15;;;4.60;99.90;;;;;;4881400;29;20049;-79
2021/03/26 01:53:01;;;;;;;12.93;7.05;;;4.60;99.90;;;;;;4881420;29;20040;-79
2021/03/26 01:55:38;;;;;;;12.18;8.07;;;4.70;99.90;;;;;;4881062;29;20453;-79
2021/03/26 01:58:18;;;;;;;13.00;6.70;;;4.70;99.90;;;;;;4866215;29;20045;-79
2021/03/26 02:00:56;;;;;;;14.00;8.30;;;4.80;99.90;;;;;;4865993;29;20043;-79
2021/03/26 02:03:37;;;;;;;15.23;7.95;;;4.80;99.90;;;;;;4880379;29;20068;-79
2021/03/26 02:06:25;;;;;;;14.07;8.57;;;4.80;99.90;;;;;;4881746;29;20040;-79
2021/03/26 02:09:19;;;;;;;16.13;8.43;;;4.90;99.90;;;;;;4897824;29;20041;-79
2021/03/26 02:12:06;;;;;;;15.40;8.57;;;5.00;99.90;;;;;;4866129;29;20044;-79
2021/03/26 02:14:40;;;;;;;16.48;9.07;;;5.00;99.90;;;;;;4865320;29;20063;-79
2021/03/26 02:17:20;;;;;;;14.00;8.57;;;5.00;99.90;;;;;;4880113;29;20508;-79
2021/03/26 02:20:18;;;;;;;16.95;8.60;;;5.00;99.90;;;;;;4866139;29;20067;-79
2021/03/26 02:22:51;;;;;;;15.07;9.75;;;5.00;99.90;;;;;;4880112;29;20075;-79
2021/03/26 02:25:26;;;;;;;21.85;9.73;;;5.00;99.90;;;;;;4880261;29;20048;-79
2021/03/26 02:27:57;;;;;;;13.85;8.32;;;5.00;99.90;;;;;;4880303;29;20052;-79
2021/03/26 02:30:31;;;;;;;15.25;9.20;;;5.00;99.90;;;;;;4865446;29;20096;-78
2021/03/26 02:33:03;;;;;;;16.13;10.70;;;4.90;99.90;;;;;;4880518;29;20127;-79
2021/03/26 02:35:50;;;;;;;14.55;8.95;;;4.90;99.90;;;;;;4865677;29;20092;-79
2021/03/26 02:38:34;;;;;;;15.15;9.60;;;4.80;99.90;;;;;;4880363;29;20056;-79
2021/03/26 02:41:31;;;;;;;15.30;8.55;;;4.80;99.90;;;;;;4866138;29;20075;-79
2021/03/26 02:44:22;;;;;;;11.68;7.55;;;4.70;99.90;;;;;;4865195;29;20040;-79
2021/03/26 02:47:15;;;;;;;15.75;9.38;;;4.70;99.90;;;;;;4880351;29;20420;-79
2021/03/26 02:50:33;;;;;;;15.80;8.77;;;4.70;99.90;;;;;;4880153;29;20041;-79
2021/03/26 02:53:09;;;;;;;12.80;7.88;;;4.60;99.90;;;;;;4864926;29;20423;-79
2021/03/26 02:56:05;;;;;;;11.98;7.60;;;4.50;99.90;;;;;;4880016;29;20055;-79
2021/03/26 02:58:42;;;;;;;10.30;7.03;;;4.40;99.90;;;;;;4865003;29;20048;-79
2021/03/26 03:01:35;;;;;;;13.20;6.93;;;4.40;99.90;;;;;;4880966;29;20056;-79
2021/03/26 03:04:30;;;;;;;14.98;7.20;;;4.30;99.90;;;;;;4865515;29;20513;-79
2021/03/26 03:07:07;;;;;;;9.85;6.72;;;4.20;99.90;;;;;;4865231;29;20491;-79
2021/03/26 03:10:08;;;;;;;12.63;6.50;;;4.10;99.90;;;;;;4883403;29;20432;-79
2021/03/26 03:12:42;;;;;;;14.07;7.78;;;4.00;99.90;;;;;;4880960;29;20568;-79
2021/03/26 03:15:18;;;;;;;12.30;7.68;;;4.00;99.90;;;;;;4863527;29;20052;-79
2021/03/26 03:18:30;;;;;;;12.05;7.57;;;4.00;99.90;;;;;;4896229;29;20413;-79
2021/03/26 03:21:05;;;;;;;12.23;8.57;;;3.90;99.90;;;;;;4856919;29;20144;-79
2021/03/26 03:23:43;;;;;;;12.55;7.10;;;3.90;99.90;;;;;;4875719;29;20044;-79
2021/03/26 03:26:39;;;;;;;12.60;7.30;;;3.90;99.90;;;;;;4867607;29;20044;-79
2021/03/26 03:29:32;;;;;;;13.13;7.53;;;3.80;99.90;;;;;;4864810;29;20048;-79
2021/03/26 03:32:45;;;;;;;12.40;7.20;;;3.70;99.90;;;;;;4882989;29;20056;-79
2021/03/26 03:35:45;;;;;;;12.98;7.30;;;3.70;99.90;;;;;;4879998;29;20037;-79
2021/03/26 03:38:52;;;;;;;14.40;8.05;;;3.70;99.90;;;;;;4865474;29;20045;-79
2021/03/26 03:41:55;;;;;;;15.15;8.15;;;3.60;99.90;;;;;;4883146;29;20049;-79
2021/03/26 03:44:36;;;;;;;17.20;7.72;;;3.60;99.90;;;;;;4864832;29;20075;-79
2021/03/26 03:47:33;;;;;;;16.25;8.82;;;3.60;99.90;;;;;;4865153;29;20468;-79
2021/03/26 03:50:32;;;;;;;13.25;8.80;;;3.60;99.90;;;;;;4882254;29;20112;-79
2021/03/26 03:53:20;;;;;;;13.93;7.82;;;3.60;99.90;;;;;;4879712;29;20048;-79
2021/03/26 03:56:03;;;;;;;12.52;7.80;;;3.70;99.90;;;;;;4866111;29;20079;-79
2021/03/26 03:58:40;;;;;;;12.52;7.35;;;3.70;99.90;;;;;;4880148;29;20049;-80
2021/03/26 04:01:34;;;;;;;14.18;8.70;;;3.70;99.90;;;;;;4865668;29;20076;-79
2021/03/26 04:04:15;;;;;;;15.68;8.02;;;3.80;99.90;;;;;;4879916;29;20139;-79
2021/03/26 04:07:04;;;;;;;12.25;8.02;;;3.80;99.90;;;;;;4879590;29;20160;-79
2021/03/26 04:09:44;;;;;;;11.23;8.13;;;3.80;99.90;;;;;;4864197;29;20512;-79
2021/03/26 04:12:17;;;;;;;17.42;8.60;;;3.80;99.90;;;;;;4863745;29;20360;-79
2021/03/26 04:15:05;;;;;;;13.60;8.23;;;3.80;99.90;;;;;;4864854;29;20072;-79
2021/03/26 04:17:46;;;;;;;13.85;8.38;;;3.80;99.90;;;;;;4865191;29;20051;-79
2021/03/26 04:20:49;;;;;;;14.02;8.70;;;3.80;99.90;;;;;;4865731;29;20048;-79
2021/03/26 04:23:49;;;;;;;14.48;8.48;;;3.80;99.90;;;;;;4864954;29;20051;-79
2021/03/26 04:26:30;;;;;;;14.48;8.05;;;3.80;99.90;;;;;;4878577;29;20053;-79
2021/03/26 04:29:34;;;;;;;12.30;7.18;;;3.70;99.90;;;;;;4877774;29;20135;-79
2021/03/26 04:32:10;;;;;;;12.75;7.18;;;3.70;99.90;;;;;;4864606;29;20044;-79
2021/03/26 04:34:43;;;;;;;16.58;8.18;;;3.70;99.90;;;;;;4863857;29;20072;-79
2021/03/26 04:37:40;;;;;;;15.25;8.50;;;3.70;99.90;;;;;;4881504;29;20048;-82
2021/03/26 04:40:44;;;;;;;17.20;9.70;;;3.70;99.90;;;;;;4880784;29;20431;-78
2021/03/26 04:43:34;;;;;;;18.73;12.02;;;3.70;99.90;;;;;;4866974;29;20045;-79
2021/03/26 04:46:35;;;;;;;29.92;14.50;;;3.60;99.90;;;;;;4866847;29;20045;-78
2021/03/26 04:49:22;;;;;;;19.27;10.82;;;3.60;99.90;;;;;;4880618;29;20085;-78
2021/03/26 04:52:31;;;;;;;21.02;11.05;;;3.60;99.90;;;;;;4866174;29;20055;-78
2021/03/26 04:55:21;;;;;;;21.73;11.18;;;3.60;99.90;;;;;;4880332;29;20056;-79
2021/03/26 04:58:03;;;;;;;19.88;11.38;;;3.50;99.90;;;;;;4896543;29;20105;-78
2021/03/26 05:01:13;;;;;;;21.02;10.25;;;3.50;99.90;;;;;;4885193;29;20052;-78
2021/03/26 05:04:06;;;;;;;18.67;10.27;;;3.50;99.90;;;;;;4866371;29;20045;-79
2021/03/26 05:06:45;;;;;;;19.88;11.02;;;3.40;99.90;;;;;;4879839;29;20527;-79
2021/03/26 05:09:22;;;;;;;18.60;10.40;;;3.40;99.90;;;;;;4864787;29;20052;-79
2021/03/26 05:12:28;;;;;;;22.80;11.55;;;3.40;99.90;;;;;;4879585;29;20052;-78
2021/03/26 05:15:31;;;;;;;19.20;11.15;;;3.40;99.90;;;;;;4865939;29;20064;-78
2021/03/26 05:18:23;;;;;;;18.30;11.30;;;3.30;99.90;;;;;;4878746;29;20045;-78
2021/03/26 05:21:11;;;;;;;18.15;11.65;;;3.30;99.90;;;;;;4863039;29;20064;-79
2021/03/26 05:24:00;;;;;;;20.38;10.00;;;3.30;99.90;;;;;;4897377;29;20141;-78
2021/03/26 05:26:50;;;;;;;18.48;11.13;;;3.30;99.90;;;;;;4897803;29;20055;-78
2021/03/26 05:29:26;;;;;;;15.52;9.73;;;3.30;99.90;;;;;;4897703;29;20065;-78
2021/03/26 05:32:22;;;;;;;16.00;9.52;;;3.30;99.90;;;;;;4867327;29;20098;-79
2021/03/26 05:35:28;;;;;;;18.15;11.60;;;3.20;99.90;;;;;;4865742;29;20807;-78
2021/03/26 05:38:52;;;;;;;27.65;15.30;;;3.20;99.90;;;;;;4858767;29;20064;-78
2021/03/26 05:41:51;;;;;;;25.73;15.00;;;3.20;99.90;;;;;;4868601;29;20073;-79
2021/03/26 05:45:06;;;;;;;20.20;12.77;;;3.20;99.90;;;;;;4862171;29;20136;-78
2021/03/26 05:48:19;;;;;;;18.13;10.50;;;3.20;99.90;;;;;;4880460;29;20059;-79
2021/03/26 05:50:54;;;;;;;21.95;11.18;;;3.20;99.90;;;;;;4863832;29;20483;-78
2021/03/26 05:54:00;;;;;;;28.00;11.30;;;3.20;99.90;;;;;;4864049;29;20052;-78
2021/03/26 05:56:53;;;;;;;20.75;10.52;;;3.20;99.90;;;;;;4851172;29;20416;-78
2021/03/26 05:59:52;;;;;;;20.27;11.25;;;3.30;99.90;;;;;;4864078;29;20089;-79
2021/03/26 06:02:52;;;;;;;21.00;11.07;;;3.30;99.90;;;;;;4879588;29;20060;-78
2021/03/26 06:06:10;;;;;;;18.67;10.38;;;3.20;99.90;;;;;;4881503;29;20144;-78
2021/03/26 06:09:51;;;;;;;19.90;10.82;;;3.30;99.90;;;;;;4879419;29;20121;-78
2021/03/26 06:13:10;;;;;;;17.15;9.77;;;3.30;99.90;;;;;;4868357;29;20413;-78
2021/03/26 06:16:23;;;;;;;15.20;8.90;;;3.30;99.90;;;;;;4869292;29;20055;-79
2021/03/26 06:19:34;;;;;;;13.98;8.80;;;3.30;99.90;;;;;;4854069;29;20072;-78
2021/03/26 06:22:38;;;;;;;17.08;9.50;;;3.30;99.90;;;;;;4863193;29;20055;-78
2021/03/26 06:25:40;;;;;;;20.02;9.40;;;3.40;99.90;;;;;;4878746;29;20190;-79
2021/03/26 06:28:37;;;;;;;14.82;8.98;;;3.40;99.90;;;;;;4862617;29;20045;-77
2021/03/26 06:31:37;;;;;;;21.33;10.43;;;3.40;99.90;;;;;;4853846;29;20045;-77
2021/03/26 06:34:54;;;;;;;14.23;8.50;;;3.50;99.90;;;;;;4880370;29;20063;-77
2021/03/26 06:37:47;;;;;;;13.73;8.40;;;3.50;99.90;;;;;;4883560;29;20148;-77
2021/03/26 06:40:53;;;;;;;12.98;8.55;;;3.60;99.90;;;;;;4879942;29;20076;-77
2021/03/26 06:43:31;;;;;;;20.88;10.38;;;3.70;99.90;;;;;;4877159;29;20120;-77
2021/03/26 06:46:19;;;;;;;16.08;8.95;;;3.70;99.90;;;;;;4878441;29;20071;-77
2021/03/26 06:49:00;;;;;;;16.08;9.68;;;3.80;99.90;;;;;;4893471;29;20083;-77
2021/03/26 06:51:59;;;;;;;16.25;10.10;;;3.80;99.90;;;;;;4863874;29;20140;-77
2021/03/26 06:54:28;;;;;;;18.42;9.63;;;3.90;99.90;;;;;;4894854;29;20079;-78
2021/03/26 06:57:16;;;;;;;16.52;9.80;;;4.00;99.90;;;;;;4880533;29;20480;-78
2021/03/26 07:00:19;;;;;;;21.75;12.65;;;4.10;99.90;;;;;;4862376;29;20140;-77
2021/03/26 07:03:21;;;;;;;25.42;14.15;;;4.20;99.90;;;;;;4863656;29;20135;-76
2021/03/26 07:06:34;;;;;;;23.38;13.50;;;4.30;99.90;;;;;;4863545;29;20054;-77
2021/03/26 07:09:22;;;;;;;21.42;13.25;;;4.40;99.90;;;;;;4851431;29;20059;-77
2021/03/26 07:11:59;;;;;;;21.75;12.63;;;4.50;99.90;;;;;;4863526;29;20147;-76
2021/03/26 07:15:01;;;;;;;22.00;12.05;;;4.50;99.90;;;;;;4870849;29;20048;-77
2021/03/26 07:17:33;;;;;;;22.10;13.25;;;4.60;99.90;;;;;;4878013;29;20075;-77
2021/03/26 07:20:29;;;;;;;24.98;14.35;;;4.70;99.90;;;;;;4863083;29;20512;-77
2021/03/26 07:23:19;;;;;;;22.52;12.50;;;4.80;99.90;;;;;;4878907;29;20055;-77
2021/03/26 07:26:08;;;;;;;26.05;13.55;;;4.80;99.90;;;;;;4878959;29;20052;-77
2021/03/26 07:29:00;;;;;;;22.15;13.25;;;4.90;99.90;;;;;;4878859;29;20530;-76
2021/03/26 07:32:13;;;;;;;25.17;13.77;;;5.00;99.90;;;;;;4878053;29;20560;-77
2021/03/26 07:35:17;;;;;;;26.33;14.65;;;5.10;99.90;;;;;;4870107;29;20139;-77
2021/03/26 07:38:13;;;;;;;24.30;13.27;;;5.20;99.90;;;;;;4877922;29;20144;-77
2021/03/26 07:40:51;;;;;;;23.90;14.23;;;5.30;99.90;;;;;;4863361;29;20055;-77
2021/03/26 07:43:59;;;;;;;19.63;11.45;;;5.40;99.90;;;;;;4878940;29;20053;-77
2021/03/26 07:46:56;;;;;;;23.38;11.63;;;5.50;99.90;;;;;;4862018;29;20097;-77
2021/03/26 07:49:52;;;;;;;22.23;12.60;;;5.70;99.90;;;;;;4859155;29;20148;-77
2021/03/26 07:52:37;;;;;;;20.27;11.85;;;5.80;99.90;;;;;;4846206;29;20143;-79
2021/03/26 07:55:25;;;;;;;22.63;12.25;;;5.90;99.90;;;;;;4863832;29;20132;-79
2021/03/26 07:58:14;;;;;;;20.60;12.13;;;6.00;99.90;;;;;;4848445;29;20402;-79
2021/03/26 08:01:24;;;;;;;21.50;12.50;;;6.20;99.90;;;;;;4863195;29;20084;-80
2021/03/26 08:04:26;;;;;;;21.25;12.25;;;6.30;99.90;;;;;;4852187;29;20136;-78
2021/03/26 08:07:41;;;;;;;20.23;11.88;;;6.40;99.90;;;;;;4863517;29;20132;-80
2021/03/26 08:10:28;;;;;;;21.85;13.68;;;6.60;99.90;;;;;;4863371;29;20486;-80
2021/03/26 08:13:36;;;;;;;26.17;15.38;;;6.70;99.90;;;;;;4847782;29;20075;-80
2021/03/26 08:16:26;;;;;;;69.10;36.53;;;6.90;99.90;;;;;;4878846;29;20533;-80
2021/03/26 08:19:15;;;;;;;99.93;53.88;;;7.00;99.90;;;;;;4863066;29;20131;-78
2021/03/26 08:22:17;;;;;;;77.60;41.40;;;7.20;99.90;;;;;;4890342;29;20113;-79
2021/03/26 08:24:55;;;;;;;62.95;36.92;;;7.30;99.90;;;;;;4888171;29;20051;-80
2021/03/26 08:27:37;;;;;;;64.80;37.78;;;7.50;99.90;;;;;;4886296;29;20059;-79
2021/03/26 08:30:27;;;;;;;55.78;32.38;;;7.60;99.90;;;;;;4865272;29;20096;-79
2021/03/26 08:33:30;;;;;;;56.22;36.15;;;7.80;99.90;;;;;;4896376;29;20093;-79
2021/03/26 08:36:24;;;;;;;52.50;32.53;;;7.90;99.90;;;;;;4880410;29;20135;-78
2021/03/26 08:39:31;;;;;;;59.35;35.90;;;8.10;99.90;;;;;;4880570;29;20101;-79
2021/03/26 08:42:06;;;;;;;59.60;33.95;;;8.20;99.90;;;;;;4880733;29;20451;-79
2021/03/26 08:44:38;;;;;;;65.88;33.97;;;8.40;99.90;;;;;;4896702;29;20083;-80
2021/03/26 08:47:22;;;;;;;68.80;37.25;;;8.50;99.90;;;;;;4880622;29;20068;-78
2021/03/26 08:50:03;;;;;;;66.72;37.47;;;8.70;99.90;;;;;;4885305;29;20067;-78
2021/03/26 08:53:03;;;;;;;61.22;35.67;;;8.90;99.90;;;;;;4903566;29;20054;-78
2021/03/26 08:56:00;;;;;;;71.65;37.20;;;9.10;99.90;;;;;;4887548;29;20124;-79
2021/03/26 08:58:56;;;;;;;58.45;33.70;;;9.30;99.90;;;;;;4889223;29;20047;-77
2021/03/26 09:01:37;;;;;;;47.85;27.48;;;9.50;99.90;;;;;;4888837;29;20037;-78
2021/03/26 09:04:36;;;;;;;46.30;27.63;;;9.60;99.90;;;;;;4897098;29;20046;-78
2021/03/26 09:07:48;;;;;;;39.22;23.65;;;9.80;99.90;;;;;;4865568;29;20088;-79
2021/03/26 09:10:41;;;;;;;30.63;19.50;;;9.90;99.90;;;;;;4870972;29;20253;-78
2021/03/26 09:13:34;;;;;;;25.52;16.13;;;10.20;99.90;;;;;;4877100;29;20051;-78
2021/03/26 09:16:11;;;;;;;23.25;16.50;;;10.30;99.90;;;;;;4866209;29;20107;-78
2021/03/26 09:18:50;;;;;;;27.75;16.83;;;10.40;99.90;;;;;;4889357;29;20085;-78
2021/03/26 09:21:38;;;;;;;25.25;14.55;;;10.60;99.90;;;;;;4887948;29;20135;-77
2021/03/26 09:24:19;;;;;;;25.60;14.55;;;10.70;99.90;;;;;;4890408;29;20136;-79
2021/03/26 09:27:23;;;;;;;22.80;15.20;;;10.80;99.90;;;;;;4885883;29;20048;-78
2021/03/26 09:30:17;;;;;;;20.38;13.52;;;10.90;99.90;;;;;;4895766;29;20131;-78
2021/03/26 09:32:56;;;;;;;22.02;12.95;;;11.10;99.90;;;;;;4878200;29;20054;-78
2021/03/26 09:35:36;;;;;;;18.23;12.15;;;11.20;99.90;;;;;;4884717;29;20139;-78
2021/03/26 09:38:19;;;;;;;22.05;11.68;;;11.30;99.90;;;;;;4885101;29;20079;-79
2021/03/26 09:41:07;;;;;;;18.30;11.38;;;11.40;99.90;;;;;;4860420;29;20044;-78
2021/03/26 09:44:26;;;;;;;16.42;10.65;;;11.60;99.90;;;;;;4870281;29;20044;-78
2021/03/26 09:47:12;;;;;;;22.50;13.68;;;11.70;99.90;;;;;;4852888;29;20063;-78
2021/03/26 09:49:52;;;;;;;25.27;14.27;;;11.80;99.90;;;;;;4876255;29;20123;-78
2021/03/26 09:52:39;;;;;;;22.95;12.85;;;12.00;99.90;;;;;;4905885;29;20053;-77
2021/03/26 09:55:32;;;;;;;21.80;13.25;;;12.10;99.90;;;;;;4879623;29;20558;-77
2021/03/26 09:58:44;;;;;;;22.30;12.85;;;12.20;99.90;;;;;;4880722;29;20045;-78
2021/03/26 10:01:27;;;;;;;23.92;12.35;;;12.30;99.90;;;;;;4911760;29;20078;-78
2021/03/26 10:04:20;;;;;;;14.70;8.65;;;12.50;99.90;;;;;;4862706;29;20124;-76
2021/03/26 10:07:02;;;;;;;15.82;8.52;;;12.50;99.90;;;;;;4886995;29;20045;-77
2021/03/26 10:09:45;;;;;;;12.88;8.50;;;12.60;96.60;;;;;;4884602;29;20139;-77
2021/03/26 10:12:23;;;;;;;12.30;7.73;;;12.70;96.30;;;;;;4886965;29;20047;-77
2021/03/26 10:15:08;;;;;;;13.65;8.40;;;12.80;95.10;;;;;;4872441;29;20307;-77
2021/03/26 10:17:54;;;;;;;15.68;7.72;;;13.00;94.50;;;;;;4882652;29;20036;-77
2021/03/26 10:20:50;;;;;;;11.75;7.05;;;13.10;91.20;;;;;;4886202;29;20055;-77
2021/03/26 10:23:36;;;;;;;13.80;7.65;;;13.10;90.20;;;;;;4914008;29;20048;-77
2021/03/26 10:26:12;;;;;;;13.02;7.60;;;13.20;85.10;;;;;;4880333;29;20052;-77
2021/03/26 10:28:38;;;;;;;12.82;7.38;;;13.30;84.80;;;;;;4868698;29;20048;-79
2021/03/26 10:31:27;;;;;;;10.85;7.72;;;13.40;84.80;;;;;;4919146;29;20068;-80
2021/03/26 10:34:08;;;;;;;15.80;8.13;;;13.50;85.50;;;;;;4904255;29;20048;-80
2021/03/26 10:36:45;;;;;;;13.13;6.78;;;13.60;83.10;;;;;;4882965;29;20042;-79
2021/03/26 10:39:16;;;;;;;12.25;7.43;;;13.70;82.20;;;;;;4889241;29;20040;-79
2021/03/26 10:42:06;;;;;;;16.70;9.65;;;13.80;88.50;;;;;;4888604;29;20047;-80
2021/03/26 10:45:05;;;;;;;15.40;9.43;;;13.90;90.70;;;;;;4865934;29;20104;-79
2021/03/26 10:47:39;;;;;;;13.15;9.48;;;14.00;90.40;;;;;;4854604;29;20580;-80
2021/03/26 10:50:11;;;;;;;13.23;9.05;;;14.10;90.00;;;;;;4853609;29;20041;-79
2021/03/26 10:52:47;;;;;;;15.65;8.10;;;14.00;87.00;;;;;;4868478;29;20041;-77
2021/03/26 10:55:26;;;;;;;13.48;8.82;;;14.10;85.60;;;;;;4862851;29;20108;-79
2021/03/26 10:58:04;;;;;;;13.07;8.52;;;14.10;83.40;;;;;;4886003;29;20140;-80
2021/03/26 11:00:36;;;;;;;15.00;8.23;;;14.10;83.00;;;;;;4886618;29;20420;-79
2021/03/26 11:03:22;;;;;;;11.13;7.43;;;14.20;85.10;;;;;;4871044;29;20052;-80
2021/03/26 11:05:56;;;;;;;16.05;7.07;;;14.30;81.80;;;;;;4880539;29;20045;-79
2021/03/26 11:08:33;;;;;;;16.90;7.35;;;14.40;79.70;;;;;;4864457;29;20044;-79
2021/03/26 11:11:10;;;;;;;11.85;7.35;;;14.40;76.80;;;;;;4877986;29;20552;-80
2021/03/26 11:13:50;;;;;;;15.55;7.72;;;14.20;73.80;;;;;;4882628;29;20135;-79
2021/03/26 11:16:39;;;;;;;11.70;7.05;;;14.20;74.20;;;;;;4883116;29;20051;-80
2021/03/26 11:19:19;;;;;;;12.52;7.35;;;14.20;75.80;;;;;;4867767;29;20132;-80
2021/03/26 11:21:48;;;;;;;12.63;6.80;;;14.30;74.30;;;;;;4867174;29;20476;-79
2021/03/26 11:24:20;;;;;;;11.93;6.80;;;14.40;72.20;;;;;;4883150;29;20045;-80
2021/03/26 11:27:01;;;;;;;11.68;7.57;;;14.50;70.80;;;;;;4867834;29;20500;-80
2021/03/26 11:29:39;;;;;;;10.45;5.30;;;14.40;72.60;;;;;;4867789;29;20139;-82
2021/03/26 11:32:23;;;;;;;10.85;5.05;;;14.50;63.30;;;;;;4882142;29;20137;-80
2021/03/26 11:35:13;;;;;;;11.63;6.03;;;14.60;60.10;;;;;;4880125;29;20135;-76
2021/03/26 11:38:31;;;;;;;9.85;5.32;;;14.70;62.00;;;;;;4878946;29;20049;-76
2021/03/26 11:41:14;;;;;;;12.88;5.55;;;14.90;60.50;;;;;;4862039;29;20140;-76
2021/03/26 11:43:51;;;;;;;7.90;4.97;;;15.00;59.40;;;;;;4859070;29;20043;-76
2021/03/26 11:46:26;;;;;;;7.80;5.05;;;15.10;57.60;;;;;;4844764;29;20059;-77
2021/03/26 11:49:28;;;;;;;7.38;4.22;;;15.20;57.70;;;;;;4844167;29;20051;-76
2021/03/26 11:52:10;;;;;;;7.70;4.75;;;15.20;56.50;;;;;;4859246;29;20509;-76
2021/03/26 11:55:04;;;;;;;10.70;4.40;;;15.20;56.20;;;;;;4844439;29;20068;-76
2021/03/26 11:57:44;;;;;;;9.35;4.18;;;15.30;57.60;;;;;;4859680;29;20258;-76
2021/03/26 12:00:30;;;;;;;5.75;4.20;;;15.40;58.70;;;;;;4852881;29;20611;-76
2021/03/26 12:03:35;;;;;;;6.80;3.97;;;15.50;54.80;;;;;;4862733;29;20132;-77
2021/03/26 12:06:38;;;;;;;8.90;4.97;;;15.60;57.30;;;;;;4876806;29;20511;-76
2021/03/26 12:09:32;;;;;;;6.13;4.18;;;15.70;56.90;;;;;;4860403;29;20088;-76
2021/03/26 12:12:19;;;;;;;7.07;4.53;;;15.80;55.00;;;;;;4877336;29;20048;-77
2021/03/26 12:14:55;;;;;;;8.88;5.07;;;15.90;56.80;;;;;;4878307;29;20054;-77
2021/03/26 12:17:39;;;;;;;7.25;4.38;;;15.90;56.30;;;;;;4874447;29;20131;-78
2021/03/26 12:20:17;;;;;;;6.72;4.45;;;16.10;54.60;;;;;;4875676;29;20134;-77
2021/03/26 12:23:08;;;;;;;10.95;4.88;;;16.10;53.90;;;;;;4877137;29;20047;-77
2021/03/26 12:26:05;;;;;;;7.90;4.32;;;16.10;53.50;;;;;;4837009;29;20329;-75
2021/03/26 12:28:55;;;;;;;8.57;4.88;;;16.20;53.40;;;;;;4889610;29;20054;-77
2021/03/26 12:31:52;;;;;;;8.82;5.50;;;16.20;51.20;;;;;;4878379;29;20131;-77
2021/03/26 12:35:12;;;;;;;9.30;5.22;;;16.20;51.00;;;;;;4878503;29;20045;-76
2021/03/26 12:38:07;;;;;;;7.15;5.00;;;16.20;50.40;;;;;;4878238;29;20048;-77
2021/03/26 12:40:41;;;;;;;6.10;4.43;;;16.20;52.40;;;;;;4878200;29;20408;-77
2021/03/26 12:43:39;;;;;;;7.40;4.97;;;16.20;53.20;;;;;;4879060;29;20041;-77
2021/03/26 12:46:10;;;;;;;8.20;4.30;;;16.20;51.70;;;;;;4853028;29;20059;-77
2021/03/26 12:48:47;;;;;;;7.22;4.45;;;16.30;49.30;;;;;;4862056;29;20140;-76
2021/03/26 12:51:34;;;;;;;7.32;4.53;;;16.30;50.60;;;;;;4878218;29;20496;-77
2021/03/26 12:54:16;;;;;;;7.40;4.72;;;16.30;49.20;;;;;;4847982;29;20453;-76
2021/03/26 12:57:14;;;;;;;7.50;5.35;;;16.30;49.90;;;;;;4847004;29;20144;-76
2021/03/26 12:59:55;;;;;;;7.72;3.35;;;16.40;49.40;;;;;;4879345;29;20086;-76
2021/03/26 13:02:32;;;;;;;6.45;3.90;;;16.50;50.00;;;;;;4877803;29;20059;-76
2021/03/26 13:05:17;;;;;;;7.05;4.50;;;16.60;48.40;;;;;;4880748;29;20412;-77
2021/03/26 13:08:11;;;;;;;6.80;4.25;;;16.60;50.00;;;;;;4865120;29;20068;-76
2021/03/26 13:10:47;;;;;;;6.80;3.90;;;16.60;47.90;;;;;;4865266;29;20052;-76
2021/03/26 13:13:24;;;;;;;6.40;4.82;;;16.60;47.50;;;;;;4883197;29;20135;-79
2021/03/26 13:16:16;;;;;;;5.65;4.22;;;16.60;47.70;;;;;;4871147;29;20471;-79
2021/03/26 13:19:03;;;;;;;9.10;5.45;;;16.70;49.70;;;;;;4866338;29;20145;-81
2021/03/26 13:22:06;;;;;;;5.65;3.67;;;16.80;48.00;;;;;;4851066;29;20041;-81
2021/03/26 13:24:45;;;;;;;5.72;3.60;;;16.90;48.10;;;;;;4838737;29;20053;-80
2021/03/26 13:27:19;;;;;;;4.70;2.80;;;16.90;44.70;;;;;;4871074;29;20053;-81
2021/03/26 13:30:00;;;;;;;5.60;2.80;;;16.80;45.30;;;;;;4886214;29;20512;-81
2021/03/26 13:32:58;;;;;;;9.55;3.70;;;16.80;45.60;;;;;;4878729;29;20077;-76
2021/03/26 13:35:54;;;;;;;4.07;2.83;;;16.80;45.60;;;;;;4887162;29;20064;-81
2021/03/26 13:38:36;;;;;;;5.47;2.88;;;16.90;43.50;;;;;;4899244;29;20051;-79
2021/03/26 13:41:17;;;;;;;4.85;3.20;;;16.90;43.00;;;;;;4886777;29;20052;-79
2021/03/26 13:44:07;;;;;;;5.28;3.28;;;16.90;43.90;;;;;;4886244;29;20560;-77
2021/03/26 13:46:39;;;;;;;4.75;3.42;;;17.00;44.20;;;;;;4889012;29;20100;-77
2021/03/26 13:49:21;;;;;;;6.00;3.60;;;16.90;43.00;;;;;;4870705;29;20044;-77
2021/03/26 13:52:03;;;;;;;5.68;3.15;;;16.90;44.50;;;;;;4879267;29;20060;-77
2021/03/26 13:54:41;;;;;;;4.75;2.78;;;17.00;45.10;;;;;;4890936;29;20049;-76
2021/03/26 13:57:21;;;;;;;4.53;3.03;;;17.10;41.80;;;;;;4861115;29;20087;-77
2021/03/26 14:00:04;;;;;;;6.32;2.63;;;17.10;42.90;;;;;;4867686;29;20449;-76
2021/03/26 14:02:43;;;;;;;4.22;2.20;;;17.20;42.40;;;;;;4879677;29;20140;-76
2021/03/26 14:05:30;;;;;;;3.72;2.00;;;17.20;40.40;;;;;;4878968;29;20419;-77
2021/03/26 14:08:08;;;;;;;4.55;2.28;;;17.20;41.30;;;;;;4878321;29;20139;-77
2021/03/26 14:11:16;;;;;;;3.88;2.00;;;17.30;38.20;;;;;;4880411;29;20059;-77
2021/03/26 14:14:08;;;;;;;4.18;2.40;;;17.20;38.40;;;;;;4864277;29;20148;-77
2021/03/26 14:16:59;;;;;;;5.07;1.98;;;17.20;40.10;;;;;;4865084;29;20048;-77
2021/03/26 14:20:01;;;;;;;3.78;2.33;;;17.20;39.70;;;;;;4879585;29;20436;-77
2021/03/26 14:22:40;;;;;;;2.70;1.88;;;17.30;39.00;;;;;;4865263;29;20161;-77
2021/03/26 14:25:33;;;;;;;4.18;2.65;;;17.30;39.30;;;;;;4892773;29;20389;-77